Edgeworth, Pennsylvania
Current Conditions -  °F | °C
As of 2:51 AM on Thursday 23 Oct 2014 (Local Time) from KPIT Reporting Station
Broken Clouds Broken Clouds  
Wind Chill: 39°   Ceiling: 4400
Heat Index: 44°   Visibility: 10mi
Dew Point: 41°   Wind: 9mph
Humidity: 89%   Direction: 300°WNW
Pressure: 30.13"   Gusts: NA
Location:  40.5741°N, 80.1457°W
Report Text: KPIT 230651Z 30008KT 10SM BKN044 07/05 A3013 RMK AO2 SLP215 T00670050
Loading
Personal Weather Stations






























Interactive Weather Map
Tropical Storm Tracking
New forecast layout! Learn more

10-Day Weather Forecast

Advertisements
Track Severe Weather on mobile